createdAt,value
2018-01-12T00:01:44.872Z,63.60
2018-01-12T00:04:13.014Z,55.27
2018-01-12T00:06:41.707Z,60.63
2018-01-12T00:09:10.726Z,56.87
2018-01-12T00:11:38.965Z,52.63
2018-01-12T00:14:08.615Z,51.07
2018-01-12T00:16:37.869Z,49.93
2018-01-12T00:19:06.109Z,54.57
2018-01-12T00:21:34.774Z,57.30
2018-01-12T00:24:03.015Z,59.70
2018-01-12T00:26:31.268Z,52.83
2018-01-12T00:29:00.948Z,62.53
2018-01-12T00:31:29.079Z,52.57
2018-01-12T00:33:57.325Z,61.20
2018-01-12T00:36:25.592Z,56.93
2018-01-12T00:38:54.601Z,62.00
2018-01-12T00:41:23.629Z,56.60
2018-01-12T00:43:52.681Z,55.60
2018-01-12T00:46:22.433Z,60.80
2018-01-12T00:48:50.692Z,59.67
2018-01-12T00:51:19.752Z,60.43
2018-01-12T00:53:48.780Z,62.13
2018-01-12T00:56:17.059Z,59.07
2018-01-12T00:58:46.815Z,63.63
2018-01-12T01:01:15.857Z,59.40
2018-01-12T01:03:44.170Z,55.10
2018-01-12T01:06:13.826Z,65.00
2018-01-12T01:08:42.370Z,59.63
2018-01-12T01:11:10.610Z,65.97
2018-01-12T01:13:38.894Z,64.73
2018-01-12T01:16:07.134Z,65.00
2018-01-12T01:18:36.142Z,61.73
2018-01-12T01:21:05.549Z,64.17
2018-01-12T01:23:33.781Z,63.53
2018-01-12T01:26:03.404Z,80.17
2018-01-12T01:28:31.998Z,69.60
2018-01-12T01:31:00.263Z,66.80
2018-01-12T01:33:28.493Z,73.43
2018-01-12T01:35:56.781Z,65.30
2018-01-12T01:38:25.794Z,73.73
2018-01-12T01:40:55.173Z,75.93
2018-01-12T01:43:23.853Z,70.10
2018-01-12T01:45:52.093Z,66.63
2018-01-12T01:48:28.433Z,66.83
2018-01-12T01:50:56.557Z,72.83
2018-01-12T01:53:26.674Z,73.80
2018-01-12T01:55:54.853Z,71.93
2018-01-12T01:58:29.009Z,69.13
2018-01-12T02:00:57.319Z,64.20
2018-01-12T02:03:26.334Z,75.70
2018-01-12T02:05:55.341Z,74.93
2018-01-12T02:08:23.632Z,81.60
2018-01-12T02:10:51.869Z,72.67
2018-01-12T02:13:21.472Z,78.20
2018-01-12T02:15:49.617Z,83.80
2018-01-12T02:18:18.255Z,87.97
2018-01-12T02:20:47.863Z,79.13
2018-01-12T02:23:16.059Z,97.30
2018-01-12T02:25:44.309Z,85.13
2018-01-12T02:28:12.593Z,97.57
2018-01-12T02:30:41.973Z,100.43
2018-01-12T02:33:10.221Z,115.90
2018-01-12T02:35:38.464Z,102.47
2018-01-12T02:38:06.758Z,109.40
2018-01-12T02:40:35.015Z,114.37
2018-01-12T02:43:04.021Z,108.17
2018-01-12T02:45:33.829Z,109.30
2018-01-12T02:48:02.110Z,103.37
2018-01-12T02:50:30.379Z,112.20
2018-01-12T02:52:59.801Z,100.90
2018-01-12T02:55:31.217Z,93.23
2018-01-12T02:57:59.474Z,98.53
2018-01-12T03:00:29.989Z,98.80
2018-01-12T03:02:59.009Z,101.67
2018-01-12T03:05:28.605Z,102.97
2018-01-12T03:07:57.162Z,114.57
2018-01-12T03:10:25.409Z,117.23
2018-01-12T03:12:54.049Z,101.47
2018-01-12T03:15:22.349Z,105.37
2018-01-12T03:17:50.992Z,96.43
2018-01-12T03:20:19.248Z,104.23
2018-01-12T03:22:48.694Z,104.10
2018-01-12T03:25:17.001Z,113.07
2018-01-12T03:27:45.222Z,122.97
2018-01-12T03:30:13.544Z,123.40
2018-01-12T03:32:43.162Z,123.17
2018-01-12T03:35:11.287Z,110.50
2018-01-12T03:37:39.960Z,111.20
2018-01-12T03:40:08.221Z,123.93
2018-01-12T03:42:36.470Z,125.60
2018-01-12T03:45:05.836Z,133.50
2018-01-12T03:47:34.498Z,130.03
2018-01-12T03:50:03.734Z,127.43
2018-01-12T03:52:32.047Z,121.20
2018-01-12T03:55:00.299Z,140.97
2018-01-12T03:57:28.532Z,135.70
2018-01-12T03:59:56.838Z,138.63
2018-01-12T04:02:25.069Z,130.47
2018-01-12T04:04:54.816Z,129.10
2018-01-12T04:07:23.086Z,122.13
2018-01-12T04:09:51.327Z,108.20
2018-01-12T04:12:19.560Z,136.83
2018-01-12T04:14:47.842Z,148.40
2018-01-12T04:17:17.593Z,122.20
2018-01-12T04:19:45.845Z,144.07
2018-01-12T04:22:15.488Z,129.47
2018-01-12T04:24:43.651Z,150.10
2018-01-12T04:27:13.412Z,134.33
2018-01-12T04:29:43.084Z,142.30
2018-01-12T04:32:11.631Z,134.70
2018-01-12T04:34:39.868Z,124.30
2018-01-12T04:37:08.169Z,113.70
2018-01-12T04:39:36.400Z,126.83
2018-01-12T04:42:04.649Z,116.37
2018-01-12T04:44:35.868Z,121.80
2018-01-12T04:47:04.500Z,142.13
2018-01-12T04:49:33.143Z,123.20
2018-01-12T04:52:03.076Z,138.40
2018-01-12T04:54:32.490Z,110.37
2018-01-12T04:57:01.519Z,123.67
2018-01-12T04:59:29.799Z,123.80
2018-01-12T05:01:58.046Z,137.83
2018-01-12T05:04:27.058Z,122.20
2018-01-12T05:06:56.725Z,115.77
2018-01-12T05:09:25.238Z,123.70
2018-01-12T05:11:53.477Z,127.87
2018-01-12T05:14:21.797Z,122.00
2018-01-12T05:16:50.052Z,127.20
2018-01-12T05:19:19.821Z,119.37
2018-01-12T05:21:48.103Z,101.50
2018-01-12T05:24:16.337Z,87.57
2018-01-12T05:26:44.572Z,94.97
2018-01-12T05:29:12.929Z,94.77
2018-01-12T05:31:41.170Z,103.93
2018-01-12T05:34:09.409Z,99.83
2018-01-12T05:36:38.470Z,98.17
2018-01-12T05:39:07.468Z,95.40
2018-01-12T05:41:35.732Z,88.23
2018-01-12T05:44:04.027Z,93.10
2018-01-12T05:46:33.047Z,90.27
2018-01-12T05:49:02.657Z,94.80
2018-01-12T05:51:31.245Z,95.47
2018-01-12T05:54:00.669Z,84.07
2018-01-12T05:56:29.278Z,99.43
2018-01-12T05:58:57.571Z,88.00
2018-01-12T06:01:38.021Z,95.20
2018-01-12T06:04:19.743Z,103.13
2018-01-12T06:06:49.337Z,125.93
2018-01-12T06:09:18.231Z,105.57
2018-01-12T06:11:46.513Z,116.83
2018-01-12T06:14:14.754Z,101.10
2018-01-12T06:16:42.993Z,113.77
2018-01-12T06:19:12.392Z,105.27
2018-01-12T06:21:40.635Z,100.67
2018-01-12T06:24:09.634Z,92.90
2018-01-12T06:26:37.905Z,87.80
2018-01-12T06:29:06.900Z,95.03
2018-01-12T06:31:35.148Z,103.20
2018-01-12T06:34:03.469Z,103.00
2018-01-12T06:36:33.230Z,116.87
2018-01-12T06:39:01.488Z,100.97
2018-01-12T06:41:29.772Z,108.50
2018-01-12T06:43:58.001Z,103.50
2018-01-12T06:46:27.744Z,103.80
2018-01-12T06:48:56.796Z,99.73
2018-01-12T06:51:26.169Z,89.97
2018-01-12T06:53:54.408Z,93.50
2018-01-12T06:56:22.697Z,86.57
2018-01-12T06:58:52.073Z,98.40
2018-01-12T07:01:20.335Z,91.00
2018-01-12T07:03:49.366Z,85.00
2018-01-12T07:06:17.605Z,92.60
2018-01-12T07:08:46.608Z,85.37
2018-01-12T07:11:14.884Z,104.77
2018-01-12T07:13:43.128Z,102.67
2018-01-12T07:16:11.365Z,100.10
2018-01-12T07:18:40.030Z,95.73
2018-01-12T07:21:20.907Z,90.37
2018-01-12T07:23:49.204Z,82.60
2018-01-12T07:26:17.435Z,78.97
2018-01-12T07:28:45.667Z,78.97
2018-01-12T07:31:13.934Z,80.63
2018-01-12T07:33:42.169Z,78.17
2018-01-12T07:36:10.413Z,88.33
2018-01-12T07:38:38.692Z,87.53
2018-01-12T07:41:08.280Z,73.77
2018-01-12T07:43:37.152Z,72.07
2018-01-12T07:46:05.425Z,79.53
2018-01-12T07:48:34.442Z,75.90
2018-01-12T07:51:02.690Z,68.43
2018-01-12T07:53:31.298Z,74.63
2018-01-12T07:56:00.731Z,70.07
2018-01-12T07:58:28.925Z,70.20
2018-01-12T08:01:02.861Z,67.60
2018-01-12T08:03:31.105Z,64.23
2018-01-12T08:05:59.333Z,71.33
2018-01-12T08:08:27.617Z,63.37
2018-01-12T08:10:55.849Z,76.13
2018-01-12T08:13:24.088Z,68.70
2018-01-12T08:15:52.361Z,78.53
2018-01-12T08:18:20.613Z,69.90
2018-01-12T08:20:48.849Z,66.57
2018-01-12T08:23:17.111Z,74.80
2018-01-12T08:25:46.852Z,71.63
2018-01-12T08:28:15.090Z,68.87
2018-01-12T08:30:43.373Z,72.03
2018-01-12T08:33:12.416Z,72.93
2018-01-12T08:35:40.610Z,64.50
2018-01-12T08:38:08.913Z,65.50
2018-01-12T08:40:37.521Z,64.37
2018-01-12T08:43:07.112Z,73.87
2018-01-12T08:45:35.265Z,78.20
2018-01-12T08:48:03.526Z,81.10
2018-01-12T08:50:31.771Z,73.53
2018-01-12T08:53:00.070Z,67.63
2018-01-12T08:55:28.296Z,66.83
2018-01-12T08:57:58.041Z,72.27
2018-01-12T09:00:26.312Z,67.97
2018-01-12T09:02:54.544Z,77.67
2018-01-12T09:05:24.135Z,70.93
2018-01-12T09:07:53.800Z,67.70
2018-01-12T09:10:22.036Z,65.07
2018-01-12T09:12:51.636Z,73.90
2018-01-12T09:15:22.273Z,77.30
2018-01-12T09:17:50.523Z,69.80
2018-01-12T09:20:18.751Z,71.80
2018-01-12T09:22:48.539Z,67.83
2018-01-12T09:25:25.359Z,71.20
2018-01-12T09:27:53.628Z,71.57
2018-01-12T09:30:21.856Z,64.20
2018-01-12T09:32:51.248Z,65.07
2018-01-12T09:35:19.915Z,65.60
2018-01-12T09:38:01.493Z,62.30
2018-01-12T09:40:31.094Z,60.37
2018-01-12T09:43:00.120Z,67.60
2018-01-12T09:45:28.353Z,56.07
2018-01-12T09:48:03.191Z,57.60
2018-01-12T09:50:31.847Z,74.90
2018-01-12T09:53:01.229Z,69.80
2018-01-12T09:55:30.267Z,74.23
2018-01-12T09:57:58.496Z,72.57
2018-01-12T10:00:28.236Z,70.27
2018-01-12T10:02:57.861Z,79.10
2018-01-12T10:05:26.369Z,72.30
2018-01-12T10:08:17.224Z,75.17
2018-01-12T10:10:45.455Z,84.10
2018-01-12T10:13:14.828Z,89.47
2018-01-12T10:15:43.088Z,74.60
2018-01-12T10:18:18.716Z,82.57
2018-01-12T10:20:48.117Z,81.27
2018-01-12T10:23:17.865Z,81.13
2018-01-12T10:25:46.105Z,78.90
2018-01-12T10:28:14.376Z,79.57
2018-01-12T10:30:44.740Z,90.90
2018-01-12T10:33:17.437Z,84.07
2018-01-12T10:35:52.684Z,103.90
2018-01-12T10:38:22.653Z,89.63
2018-01-12T10:40:54.068Z,95.97
2018-01-12T10:43:22.199Z,95.77
2018-01-12T10:45:59.979Z,92.90
2018-01-12T10:51:34.415Z,106.30
2018-01-12T10:54:03.691Z,95.70
2018-01-12T10:56:33.296Z,99.10
2018-01-12T10:59:02.200Z,96.80
2018-01-12T11:01:31.622Z,105.07
2018-01-12T11:03:59.857Z,96.13
2018-01-12T11:06:28.091Z,104.57
2018-01-12T11:08:56.424Z,110.07
2018-01-12T11:11:26.020Z,108.60
2018-01-12T11:13:54.533Z,105.87
2018-01-12T11:16:23.592Z,111.97
2018-01-12T11:18:51.824Z,148.33
2018-01-12T11:21:20.089Z,127.53
2018-01-12T11:23:48.352Z,123.73
2018-01-12T11:26:16.592Z,140.47
2018-01-12T11:28:44.841Z,137.00
2018-01-12T11:31:13.108Z,135.33
2018-01-12T11:33:42.480Z,123.43
2018-01-12T11:36:10.722Z,120.10
2018-01-12T11:38:38.992Z,142.50
2018-01-12T11:41:07.240Z,141.67
2018-01-12T11:43:36.859Z,126.83
2018-01-12T11:46:05.857Z,150.57
2018-01-12T11:48:35.193Z,133.80
2018-01-12T11:51:04.217Z,135.93
2018-01-12T11:53:32.523Z,136.57
2018-01-12T11:56:02.137Z,137.67
2018-01-12T11:58:32.124Z,141.30
2018-01-12T12:01:01.512Z,132.93
2018-01-12T12:03:29.747Z,139.17
2018-01-12T12:05:58.780Z,152.13
2018-01-12T12:08:27.787Z,156.63
2018-01-12T12:10:56.797Z,144.67
2018-01-12T12:13:26.209Z,141.70
2018-01-12T12:15:54.455Z,145.03
2018-01-12T12:18:22.692Z,161.57
2018-01-12T12:20:51.393Z,149.80
2018-01-12T12:23:19.645Z,149.83
2018-01-12T12:25:48.664Z,136.50
2018-01-12T12:28:17.760Z,127.10
2018-01-12T12:30:45.989Z,146.63
2018-01-12T12:33:15.588Z,148.37
2018-01-12T12:35:45.087Z,143.87
2018-01-12T12:38:13.209Z,130.03
2018-01-12T12:40:41.449Z,122.23
2018-01-12T12:43:11.083Z,124.47
2018-01-12T12:45:39.588Z,126.97
2018-01-12T12:48:08.587Z,126.67
2018-01-12T12:50:36.865Z,123.67
2018-01-12T12:53:05.105Z,124.53
2018-01-12T12:55:34.164Z,127.40
2018-01-12T12:58:04.144Z,126.47
2018-01-12T13:00:33.756Z,130.00
2018-01-12T13:03:03.041Z,127.23
2018-01-12T13:05:31.311Z,129.33
2018-01-12T13:07:59.547Z,138.50
2018-01-12T13:10:27.844Z,126.33
2018-01-12T13:12:56.084Z,143.43
2018-01-12T13:15:25.088Z,140.43
2018-01-12T13:17:53.363Z,134.20
2018-01-12T13:20:22.369Z,138.27
2018-01-12T13:22:51.393Z,129.40
2018-01-12T13:25:21.036Z,132.07
2018-01-12T13:27:49.558Z,140.37
2018-01-12T13:30:17.801Z,130.50
2018-01-12T13:32:46.088Z,133.00
2018-01-12T13:35:14.328Z,128.63
2018-01-12T13:37:42.568Z,125.07
2018-01-12T13:40:10.862Z,128.70
2018-01-12T13:42:39.097Z,134.20
2018-01-12T13:45:07.336Z,130.23
2018-01-12T13:47:38.084Z,120.93
2018-01-12T13:50:07.475Z,124.23
2018-01-12T13:52:35.832Z,125.63
2018-01-12T13:55:04.909Z,128.47
2018-01-12T13:57:33.203Z,137.17
2018-01-12T14:00:02.969Z,150.70
2018-01-12T14:02:31.286Z,134.53
2018-01-12T14:04:59.535Z,138.80
2018-01-12T14:07:27.806Z,141.30
2018-01-12T14:09:56.072Z,148.57
2018-01-12T14:12:24.308Z,130.00
2018-01-12T14:14:53.912Z,138.30
2018-01-12T14:17:22.929Z,145.43
2018-01-12T14:19:52.038Z,151.40
2018-01-12T14:22:20.260Z,135.97
2018-01-12T14:24:48.540Z,149.43
2018-01-12T14:27:16.794Z,132.10
2018-01-12T14:29:46.391Z,130.83
2018-01-12T14:32:15.340Z,144.73
2018-01-12T14:34:44.717Z,148.57
2018-01-12T14:37:13.742Z,154.27
2018-01-12T14:39:42.840Z,143.60
2018-01-12T14:42:11.083Z,149.57
2018-01-12T14:44:39.344Z,183.37
2018-01-12T14:49:03.305Z,158.87
2018-01-12T14:51:31.994Z,179.27
2018-01-12T14:54:01.437Z,196.37
2018-01-12T14:56:29.780Z,173.47
2018-01-12T14:58:58.085Z,154.57
2018-01-12T15:01:26.750Z,169.93
2018-01-12T15:03:55.404Z,165.43
2018-01-12T15:06:24.793Z,179.83
2018-01-12T15:08:53.047Z,165.70
2018-01-12T15:11:21.401Z,180.03
2018-01-12T15:13:49.648Z,170.27
2018-01-12T15:16:19.437Z,183.53
2018-01-12T15:18:47.763Z,157.50
2018-01-12T15:21:17.380Z,202.00
2018-01-12T15:23:45.524Z,197.47
2018-01-12T15:26:13.825Z,191.10
2018-01-12T15:28:42.873Z,176.80
2018-01-12T15:31:11.137Z,198.97
2018-01-12T15:33:40.215Z,195.57
2018-01-12T15:36:09.286Z,201.27
2018-01-12T15:38:37.573Z,184.07
2018-01-12T15:41:06.346Z,195.40
2018-01-12T15:43:34.618Z,201.60
2018-01-12T15:46:03.681Z,199.97
2018-01-12T15:48:32.025Z,201.07
2018-01-12T15:51:00.873Z,216.00
2018-01-12T15:53:29.274Z,211.83
2018-01-12T15:55:58.377Z,207.57
2018-01-12T15:58:27.887Z,227.87
2018-01-12T16:00:57.777Z,203.77
2018-01-12T16:03:26.798Z,205.07
2018-01-12T16:05:55.091Z,185.80
2018-01-12T16:08:24.840Z,181.63
2018-01-12T16:10:53.128Z,193.27
2018-01-12T16:13:21.409Z,154.50
2018-01-12T16:15:49.685Z,156.60
2018-01-12T16:18:19.342Z,145.93
2018-01-12T16:20:48.822Z,136.73
2018-01-12T16:23:18.304Z,147.97
2018-01-12T16:25:47.977Z,132.50
2018-01-12T16:28:16.232Z,151.87
2018-01-12T16:30:44.615Z,138.17
2018-01-12T16:33:12.893Z,133.17
2018-01-12T16:35:41.141Z,127.80
2018-01-12T16:38:09.376Z,148.23
2018-01-12T16:40:37.672Z,136.97
2018-01-12T16:43:06.324Z,124.10
2018-01-12T16:45:34.605Z,132.73
2018-01-12T16:48:02.972Z,142.43
2018-01-12T16:50:31.213Z,122.73
2018-01-12T16:52:59.452Z,109.37
2018-01-12T16:55:27.768Z,140.77
2018-01-12T16:57:57.384Z,124.80
2018-01-12T17:00:25.522Z,131.90
2018-01-12T17:02:53.817Z,145.23
2018-01-12T17:05:22.076Z,127.70
2018-01-12T17:07:51.857Z,127.17
2018-01-12T17:10:21.530Z,154.33
2018-01-12T17:12:49.724Z,135.00
2018-01-12T17:15:19.373Z,137.37
2018-01-12T17:17:48.684Z,173.37
2018-01-12T17:20:16.951Z,167.10
2018-01-12T17:22:45.192Z,135.00
2018-01-12T17:25:13.465Z,131.60
2018-01-12T17:27:41.718Z,157.70
2018-01-12T17:30:10.734Z,155.63
2018-01-12T17:32:39.048Z,163.87
2018-01-12T17:35:07.712Z,188.57
2018-01-12T17:37:37.327Z,176.37
2018-01-12T17:40:06.272Z,155.53
2018-01-12T17:42:35.958Z,168.03
2018-01-12T17:45:04.276Z,176.13
2018-01-12T17:47:33.209Z,181.63
2018-01-12T17:50:02.798Z,194.47
2018-01-12T17:52:32.219Z,173.87
2018-01-12T17:55:00.616Z,189.03
2018-01-12T17:57:28.873Z,169.93
2018-01-12T17:59:58.548Z,172.93
2018-01-12T18:02:26.789Z,165.43
2018-01-12T18:04:56.420Z,177.23
2018-01-12T18:07:25.957Z,163.43
2018-01-12T18:09:55.448Z,150.93
2018-01-12T18:12:24.362Z,167.53
2018-01-12T18:14:53.022Z,161.47
2018-01-12T18:17:22.789Z,162.97
2018-01-12T18:19:51.045Z,146.20
2018-01-12T18:22:19.345Z,161.80
2018-01-12T18:24:47.597Z,145.90
2018-01-12T18:27:15.849Z,146.00
2018-01-12T18:29:44.154Z,144.83
2018-01-12T18:32:12.421Z,135.73
2018-01-12T18:34:42.081Z,159.93
2018-01-12T18:37:10.691Z,134.97
2018-01-12T18:39:40.374Z,135.90
2018-01-12T18:42:08.746Z,141.50
2018-01-12T18:44:37.078Z,140.50
2018-01-12T18:47:06.798Z,120.40
2018-01-12T18:49:36.339Z,138.73
2018-01-12T18:52:05.946Z,140.00
2018-01-12T18:54:35.537Z,116.27
2018-01-12T18:57:05.154Z,128.93
2018-01-12T18:59:33.366Z,129.73
2018-01-12T19:02:03.223Z,126.33
2018-01-12T19:04:31.515Z,139.40
2018-01-12T19:06:59.799Z,141.43
2018-01-12T19:09:28.038Z,142.30
2018-01-12T19:11:56.333Z,139.47
2018-01-12T19:14:26.156Z,124.43
2018-01-12T19:16:54.536Z,130.27
2018-01-12T19:19:24.153Z,121.30
2018-01-12T19:21:52.370Z,131.27
2018-01-12T19:24:20.712Z,140.47
2018-01-12T19:26:49.762Z,127.17
2018-01-12T19:29:19.110Z,134.97
2018-01-12T19:31:47.357Z,137.67
2018-01-12T19:34:17.125Z,137.07
2018-01-12T19:36:45.452Z,139.03
2018-01-12T19:39:15.605Z,132.17
2018-01-12T19:41:46.368Z,133.13
2018-01-12T19:44:15.009Z,131.13
2018-01-12T19:46:43.282Z,142.50
2018-01-12T19:49:12.918Z,143.73
2018-01-12T19:51:42.474Z,141.40
2018-01-12T19:54:12.034Z,144.90
2018-01-12T19:56:40.236Z,138.07
2018-01-12T19:59:08.521Z,139.43
2018-01-12T20:01:38.744Z,128.57
2018-01-12T20:04:07.314Z,134.30
2018-01-12T20:06:35.572Z,126.77
2018-01-12T20:09:03.844Z,143.97
2018-01-12T20:11:32.231Z,136.47
2018-01-12T20:14:00.506Z,132.57
2018-01-12T20:16:29.885Z,121.50
2018-01-12T20:18:58.589Z,134.93
2018-01-12T20:21:26.825Z,154.03
2018-01-12T20:23:56.246Z,130.87
2018-01-12T20:26:24.724Z,141.07
2018-01-12T20:28:52.972Z,146.83
2018-01-12T20:31:22.618Z,131.13
2018-01-12T20:33:51.180Z,162.60
2018-01-12T20:36:19.501Z,155.90
2018-01-12T20:38:47.727Z,130.77
2018-01-12T20:41:16.047Z,159.87
2018-01-12T20:43:44.333Z,168.30
2018-01-12T20:46:14.111Z,155.07
2018-01-12T20:48:42.380Z,138.83
2018-01-12T20:51:10.633Z,189.00
2018-01-12T20:53:38.883Z,153.20
2018-01-12T20:56:08.665Z,159.73
2018-01-12T20:58:38.426Z,161.70
2018-01-12T21:01:07.445Z,168.03
2018-01-12T21:03:36.909Z,167.77
2018-01-12T21:06:06.716Z,146.20
2018-01-12T21:08:36.120Z,164.47
2018-01-12T21:11:04.413Z,162.77
2018-01-12T21:13:32.713Z,155.60
2018-01-12T21:16:01.541Z,174.63
2018-01-12T21:18:29.857Z,168.63
2018-01-12T21:20:59.237Z,179.93
2018-01-12T21:23:27.489Z,169.87
2018-01-12T21:25:57.264Z,176.27
2018-01-12T21:28:26.198Z,169.03
2018-01-12T21:30:54.470Z,158.17
2018-01-12T21:33:23.567Z,156.23
2018-01-12T21:35:51.821Z,159.83
2018-01-12T21:38:20.430Z,156.93
2018-01-12T21:40:50.132Z,165.47
2018-01-12T21:43:18.287Z,165.67
2018-01-12T21:45:46.579Z,143.27
2018-01-12T21:48:15.992Z,145.20
2018-01-12T21:50:44.318Z,143.93
2018-01-12T21:53:12.555Z,172.37
2018-01-12T21:55:40.849Z,145.37
2018-01-12T21:58:10.546Z,161.40
2018-01-12T22:00:39.842Z,160.17
2018-01-12T22:03:09.265Z,140.47
2018-01-12T22:05:37.528Z,140.40
2018-01-12T22:08:05.777Z,151.00
2018-01-12T22:10:35.209Z,142.47
2018-01-12T22:13:03.648Z,133.17
2018-01-12T22:15:33.259Z,129.73
2018-01-12T22:18:01.446Z,140.90
2018-01-12T22:20:29.726Z,137.00
2018-01-12T22:22:57.968Z,149.10
2018-01-12T22:25:26.290Z,152.07
2018-01-12T22:27:54.520Z,143.37
2018-01-12T22:30:22.784Z,155.67
2018-01-12T22:32:51.186Z,135.40
2018-01-12T22:35:20.811Z,145.90
2018-01-12T22:37:48.940Z,130.20
2018-01-12T22:40:17.233Z,137.90
2018-01-12T22:42:45.472Z,133.37
2018-01-12T22:45:13.718Z,157.90
2018-01-12T22:47:41.989Z,158.90
2018-01-12T22:50:10.232Z,152.97
2018-01-12T22:52:38.876Z,140.10
2018-01-12T22:55:07.210Z,152.80
2018-01-12T22:57:35.502Z,145.80
2018-01-12T23:00:03.763Z,152.97
2018-01-12T23:02:33.631Z,153.73
2018-01-12T23:05:02.029Z,144.57
2018-01-12T23:07:30.354Z,140.00
2018-01-12T23:09:59.762Z,167.60
2018-01-12T23:12:27.996Z,144.63
2018-01-12T23:14:56.286Z,156.60
2018-01-12T23:17:24.577Z,147.53
2018-01-12T23:19:52.937Z,156.87
2018-01-12T23:22:21.250Z,146.07
2018-01-12T23:24:49.601Z,152.47
2018-01-12T23:27:19.384Z,148.13
2018-01-12T23:29:49.014Z,152.03
2018-01-12T23:32:18.503Z,156.40
2018-01-12T23:34:47.821Z,151.37
2018-01-12T23:37:17.465Z,153.13
2018-01-12T23:39:46.348Z,147.33
2018-01-12T23:42:15.416Z,142.47
2018-01-12T23:44:43.693Z,127.30
2018-01-12T23:47:11.932Z,118.30
2018-01-12T23:49:40.254Z,129.57
2018-01-12T23:52:08.541Z,126.90
2018-01-12T23:54:36.812Z,122.30
2018-01-12T23:57:05.853Z,128.63
2018-01-12T23:59:34.166Z,132.57
